Aviation Digital Data Service (ADDS)

Output produced by METARs form (1846 UTC 24 October 2014)
found at http://aviationweather.gov/adds/metars/
 
KRUT 241738Z 2418/2518 32008G16KT P6SM OVC008 
     TEMPO 2418/2422 OVC010 
     FM242200 33006KT P6SM OVC011 
     FM250200 VRB03KT P6SM OVC025 
     FM250400 VRB03KT P6SM SCT035 BKN120 
     FM251400 29004KT P6SM SCT200 AMD LTD TO CLD VIS AND WIND